Terminal Aerodrome Forecast
Issued by NWS

Home | Current Version | Previous Version | Text Only | Print | Product List | Glossary On
Versions: 1 2 3 4 5 6 7 8 9 10 11 12 13 14 15 16 17 18 19 20 21 22 23 24 25 26 27 28 29 30 31 32
000
FTUS43 KDLH 061754 AAB
TAFHYR
TAF AMD
KHYR 061754Z 0618/0718 02010G26KT 2SM RA BR BKN013
      TEMPO 0618/0619 +RA BR BKN007
     FM062200 33005KT 4SM BR SCT015 BKN035
     FM070000 01005KT 4SM BR OVC020
     FM070400 01004KT P6SM BKN040=

USA.gov is the U.S. government's official web portal to all federal, state and local government web resources and services.